sensor_id;sensor_type;location;lat;lon;timestamp;P1;durP1;ratioP1;P2;durP2;ratioP2
48361;SDS011;34510;51.888;5.670;2022-12-10T00:00:21;54.55;;;24.20;;
48361;SDS011;34510;51.888;5.670;2022-12-10T00:05:23;73.15;;;24.05;;
48361;SDS011;34510;51.888;5.670;2022-12-10T00:10:25;62.30;;;25.48;;
48361;SDS011;34510;51.888;5.670;2022-12-10T00:15:27;50.28;;;21.92;;
48361;SDS011;34510;51.888;5.670;2022-12-10T00:20:29;57.22;;;23.02;;
48361;SDS011;34510;51.888;5.670;2022-12-10T00:25:33;64.88;;;22.52;;
48361;SDS011;34510;51.888;5.670;2022-12-10T00:30:35;54.17;;;22.80;;
48361;SDS011;34510;51.888;5.670;2022-12-10T00:35:37;60.17;;;21.48;;
48361;SDS011;34510;51.888;5.670;2022-12-10T00:40:39;59.40;;;24.05;;
48361;SDS011;34510;51.888;5.670;2022-12-10T00:45:41;56.38;;;23.85;;
48361;SDS011;34510;51.888;5.670;2022-12-10T00:50:43;60.20;;;23.58;;
48361;SDS011;34510;51.888;5.670;2022-12-10T00:55:44;56.45;;;22.80;;
48361;SDS011;34510;51.888;5.670;2022-12-10T01:00:46;66.30;;;23.25;;
48361;SDS011;34510;51.888;5.670;2022-12-10T01:05:49;61.05;;;23.00;;
48361;SDS011;34510;51.888;5.670;2022-12-10T01:10:53;56.53;;;22.63;;
48361;SDS011;34510;51.888;5.670;2022-12-10T01:15:59;58.92;;;22.77;;
48361;SDS011;34510;51.888;5.670;2022-12-10T01:21:05;59.38;;;22.83;;
48361;SDS011;34510;51.888;5.670;2022-12-10T01:26:13;59.10;;;21.60;;
48361;SDS011;34510;51.888;5.670;2022-12-10T01:31:16;64.72;;;22.80;;
48361;SDS011;34510;51.888;5.670;2022-12-10T01:36:23;64.28;;;24.65;;
48361;SDS011;34510;51.888;5.670;2022-12-10T01:41:27;57.88;;;21.23;;
48361;SDS011;34510;51.888;5.670;2022-12-10T01:46:30;62.20;;;22.95;;
48361;SDS011;34510;51.888;5.670;2022-12-10T01:51:33;60.78;;;20.83;;
48361;SDS011;34510;51.888;5.670;2022-12-10T01:56:38;56.88;;;22.08;;
48361;SDS011;34510;51.888;5.670;2022-12-10T02:06:54;64.75;;;22.80;;
48361;SDS011;34510;51.888;5.670;2022-12-10T02:17:07;53.58;;;21.55;;
48361;SDS011;34510;51.888;5.670;2022-12-10T02:22:14;61.80;;;22.63;;
48361;SDS011;34510;51.888;5.670;2022-12-10T02:32:25;58.83;;;23.30;;
48361;SDS011;34510;51.888;5.670;2022-12-10T02:37:34;58.83;;;22.02;;
48361;SDS011;34510;51.888;5.670;2022-12-10T02:42:38;62.90;;;23.00;;
48361;SDS011;34510;51.888;5.670;2022-12-10T02:47:41;71.72;;;23.45;;
48361;SDS011;34510;51.888;5.670;2022-12-10T02:52:43;62.35;;;22.45;;
48361;SDS011;34510;51.888;5.670;2022-12-10T03:13:18;58.50;;;21.25;;
48361;SDS011;34510;51.888;5.670;2022-12-10T03:18:21;63.13;;;24.05;;
48361;SDS011;34510;51.888;5.670;2022-12-10T03:23:24;61.13;;;23.73;;
48361;SDS011;34510;51.888;5.670;2022-12-10T03:28:28;66.28;;;24.42;;
48361;SDS011;34510;51.888;5.670;2022-12-10T03:33:31;65.45;;;21.52;;
48361;SDS011;34510;51.888;5.670;2022-12-10T03:38:33;62.72;;;23.45;;
48361;SDS011;34510;51.888;5.670;2022-12-10T03:43:36;60.03;;;22.73;;
48361;SDS011;34510;51.888;5.670;2022-12-10T03:48:50;66.70;;;24.67;;
48361;SDS011;34510;51.888;5.670;2022-12-10T03:53:52;60.83;;;23.33;;
48361;SDS011;34510;51.888;5.670;2022-12-10T03:58:54;67.47;;;22.77;;
48361;SDS011;34510;51.888;5.670;2022-12-10T04:03:56;66.47;;;24.48;;
48361;SDS011;34510;51.888;5.670;2022-12-10T04:08:58;64.20;;;25.48;;
48361;SDS011;34510;51.888;5.670;2022-12-10T04:14:00;80.95;;;26.02;;
48361;SDS011;34510;51.888;5.670;2022-12-10T04:19:20;76.72;;;26.55;;
48361;SDS011;34510;51.888;5.670;2022-12-10T04:24:23;66.55;;;26.75;;
48361;SDS011;34510;51.888;5.670;2022-12-10T04:29:43;92.13;;;30.55;;
48361;SDS011;34510;51.888;5.670;2022-12-10T04:34:45;93.63;;;28.42;;
48361;SDS011;34510;51.888;5.670;2022-12-10T04:39:48;107.50;;;31.30;;
48361;SDS011;34510;51.888;5.670;2022-12-10T04:44:50;141.25;;;35.72;;
48361;SDS011;34510;51.888;5.670;2022-12-10T04:49:52;130.75;;;35.67;;
48361;SDS011;34510;51.888;5.670;2022-12-10T04:54:54;198.48;;;39.92;;
48361;SDS011;34510;51.888;5.670;2022-12-10T04:59:56;117.28;;;34.25;;
48361;SDS011;34510;51.888;5.670;2022-12-10T05:04:58;202.98;;;38.65;;
48361;SDS011;34510;51.888;5.670;2022-12-10T05:10:00;152.45;;;36.70;;
48361;SDS011;34510;51.888;5.670;2022-12-10T05:15:01;145.60;;;33.65;;
48361;SDS011;34510;51.888;5.670;2022-12-10T05:20:03;225.95;;;37.33;;
48361;SDS011;34510;51.888;5.670;2022-12-10T05:25:06;233.27;;;39.33;;
48361;SDS011;34510;51.888;5.670;2022-12-10T05:30:08;186.13;;;38.47;;
48361;SDS011;34510;51.888;5.670;2022-12-10T05:35:11;197.27;;;38.60;;
48361;SDS011;34510;51.888;5.670;2022-12-10T05:40:13;117.65;;;28.83;;
48361;SDS011;34510;51.888;5.670;2022-12-10T05:45:15;123.35;;;31.48;;
48361;SDS011;34510;51.888;5.670;2022-12-10T05:50:16;151.60;;;32.78;;
48361;SDS011;34510;51.888;5.670;2022-12-10T05:55:18;166.93;;;32.20;;
48361;SDS011;34510;51.888;5.670;2022-12-10T06:00:20;121.25;;;31.02;;
48361;SDS011;34510;51.888;5.670;2022-12-10T06:05:24;99.38;;;29.00;;
48361;SDS011;34510;51.888;5.670;2022-12-10T06:10:26;183.13;;;31.88;;
48361;SDS011;34510;51.888;5.670;2022-12-10T06:15:28;176.48;;;31.90;;
48361;SDS011;34510;51.888;5.670;2022-12-10T06:20:30;148.95;;;31.38;;
48361;SDS011;34510;51.888;5.670;2022-12-10T06:25:32;140.73;;;32.72;;
48361;SDS011;34510;51.888;5.670;2022-12-10T06:30:34;117.85;;;27.50;;
48361;SDS011;34510;51.888;5.670;2022-12-10T06:35:37;128.95;;;29.92;;
48361;SDS011;34510;51.888;5.670;2022-12-10T06:40:39;199.70;;;28.33;;
48361;SDS011;34510;51.888;5.670;2022-12-10T06:45:42;136.93;;;30.23;;
48361;SDS011;34510;51.888;5.670;2022-12-10T06:50:44;111.40;;;30.60;;
48361;SDS011;34510;51.888;5.670;2022-12-10T06:55:45;124.72;;;28.13;;
48361;SDS011;34510;51.888;5.670;2022-12-10T07:00:47;130.65;;;29.35;;
48361;SDS011;34510;51.888;5.670;2022-12-10T07:05:49;96.00;;;27.67;;
48361;SDS011;34510;51.888;5.670;2022-12-10T07:10:51;98.68;;;28.60;;
48361;SDS011;34510;51.888;5.670;2022-12-10T07:15:53;127.45;;;30.40;;
48361;SDS011;34510;51.888;5.670;2022-12-10T07:20:55;119.10;;;27.88;;
48361;SDS011;34510;51.888;5.670;2022-12-10T07:25:58;135.82;;;26.55;;
48361;SDS011;34510;51.888;5.670;2022-12-10T07:31:00;119.47;;;28.33;;
48361;SDS011;34510;51.888;5.670;2022-12-10T07:36:03;95.13;;;25.85;;
48361;SDS011;34510;51.888;5.670;2022-12-10T07:41:06;92.20;;;26.88;;
48361;SDS011;34510;51.888;5.670;2022-12-10T07:46:11;222.43;;;28.80;;
48361;SDS011;34510;51.888;5.670;2022-12-10T07:51:14;95.38;;;26.05;;
48361;SDS011;34510;51.888;5.670;2022-12-10T07:56:17;84.03;;;25.80;;
48361;SDS011;34510;51.888;5.670;2022-12-10T08:01:23;165.02;;;29.73;;
48361;SDS011;34510;51.888;5.670;2022-12-10T08:06:26;133.10;;;25.13;;
48361;SDS011;34510;51.888;5.670;2022-12-10T08:11:28;115.93;;;27.98;;
48361;SDS011;34510;51.888;5.670;2022-12-10T08:16:30;116.10;;;23.70;;
48361;SDS011;34510;51.888;5.670;2022-12-10T08:21:33;91.35;;;24.73;;
48361;SDS011;34510;51.888;5.670;2022-12-10T08:26:35;125.22;;;27.35;;
48361;SDS011;34510;51.888;5.670;2022-12-10T08:31:36;114.03;;;24.90;;
48361;SDS011;34510;51.888;5.670;2022-12-10T08:36:38;123.50;;;24.27;;
48361;SDS011;34510;51.888;5.670;2022-12-10T08:41:41;156.52;;;26.33;;
48361;SDS011;34510;51.888;5.670;2022-12-10T08:46:42;115.65;;;26.42;;
48361;SDS011;34510;51.888;5.670;2022-12-10T08:51:44;158.82;;;27.45;;
48361;SDS011;34510;51.888;5.670;2022-12-10T08:56:46;108.00;;;24.63;;
48361;SDS011;34510;51.888;5.670;2022-12-10T09:01:50;116.63;;;24.60;;
48361;SDS011;34510;51.888;5.670;2022-12-10T09:06:57;144.15;;;32.05;;
48361;SDS011;34510;51.888;5.670;2022-12-10T09:11:58;113.80;;;25.05;;
48361;SDS011;34510;51.888;5.670;2022-12-10T09:17:03;82.28;;;24.25;;
48361;SDS011;34510;51.888;5.670;2022-12-10T09:22:05;153.82;;;24.98;;
48361;SDS011;34510;51.888;5.670;2022-12-10T09:27:07;133.35;;;24.05;;
48361;SDS011;34510;51.888;5.670;2022-12-10T09:32:09;96.30;;;23.10;;
48361;SDS011;34510;51.888;5.670;2022-12-10T09:37:11;70.68;;;20.17;;
48361;SDS011;34510;51.888;5.670;2022-12-10T09:42:34;97.40;;;20.02;;
48361;SDS011;34510;51.888;5.670;2022-12-10T09:47:44;121.22;;;20.65;;
48361;SDS011;34510;51.888;5.670;2022-12-10T09:52:47;120.50;;;24.75;;
48361;SDS011;34510;51.888;5.670;2022-12-10T09:57:51;111.97;;;19.60;;
48361;SDS011;34510;51.888;5.670;2022-12-10T10:02:55;93.28;;;20.38;;
48361;SDS011;34510;51.888;5.670;2022-12-10T10:07:59;203.00;;;23.10;;
48361;SDS011;34510;51.888;5.670;2022-12-10T10:18:22;111.65;;;21.42;;
48361;SDS011;34510;51.888;5.670;2022-12-10T10:23:27;111.80;;;23.20;;
48361;SDS011;34510;51.888;5.670;2022-12-10T10:28:29;93.72;;;21.25;;
48361;SDS011;34510;51.888;5.670;2022-12-10T10:33:31;102.22;;;22.85;;
48361;SDS011;34510;51.888;5.670;2022-12-10T10:38:48;88.07;;;21.20;;
48361;SDS011;34510;51.888;5.670;2022-12-10T10:43:51;114.88;;;22.20;;
48361;SDS011;34510;51.888;5.670;2022-12-10T10:49:11;185.98;;;27.27;;
48361;SDS011;34510;51.888;5.670;2022-12-10T11:04:20;105.53;;;23.38;;
48361;SDS011;34510;51.888;5.670;2022-12-10T11:09:26;84.60;;;22.90;;
48361;SDS011;34510;51.888;5.670;2022-12-10T11:14:30;133.35;;;23.52;;
48361;SDS011;34510;51.888;5.670;2022-12-10T11:19:44;137.65;;;23.83;;
48361;SDS011;34510;51.888;5.670;2022-12-10T11:24:54;100.88;;;23.95;;
48361;SDS011;34510;51.888;5.670;2022-12-10T11:30:04;96.20;;;23.10;;
48361;SDS011;34510;51.888;5.670;2022-12-10T11:45:26;77.25;;;20.83;;
48361;SDS011;34510;51.888;5.670;2022-12-10T11:50:35;92.95;;;20.52;;
48361;SDS011;34510;51.888;5.670;2022-12-10T12:01:00;140.85;;;24.13;;
48361;SDS011;34510;51.888;5.670;2022-12-10T12:21:58;72.32;;;23.58;;
48361;SDS011;34510;51.888;5.670;2022-12-10T12:27:22;133.32;;;22.10;;
48361;SDS011;34510;51.888;5.670;2022-12-10T12:32:27;69.65;;;19.48;;
48361;SDS011;34510;51.888;5.670;2022-12-10T12:37:41;102.35;;;23.15;;
48361;SDS011;34510;51.888;5.670;2022-12-10T12:42:50;79.60;;;19.40;;
48361;SDS011;34510;51.888;5.670;2022-12-10T12:53:15;81.47;;;18.87;;
48361;SDS011;34510;51.888;5.670;2022-12-10T13:03:42;85.82;;;18.83;;
48361;SDS011;34510;51.888;5.670;2022-12-10T13:29:59;64.68;;;19.67;;
48361;SDS011;34510;51.888;5.670;2022-12-10T14:10:51;66.57;;;17.90;;
48361;SDS011;34510;51.888;5.670;2022-12-10T14:15:54;68.53;;;17.05;;
48361;SDS011;34510;51.888;5.670;2022-12-10T14:20:57;69.70;;;16.67;;
48361;SDS011;34510;51.888;5.670;2022-12-10T14:31:21;87.93;;;18.65;;
48361;SDS011;34510;51.888;5.670;2022-12-10T14:36:39;79.88;;;17.48;;
48361;SDS011;34510;51.888;5.670;2022-12-10T14:41:46;106.43;;;20.67;;
48361;SDS011;34510;51.888;5.670;2022-12-10T14:46:49;69.15;;;18.67;;
48361;SDS011;34510;51.888;5.670;2022-12-10T14:51:52;66.35;;;17.75;;
48361;SDS011;34510;51.888;5.670;2022-12-10T14:56:57;80.00;;;19.48;;
48361;SDS011;34510;51.888;5.670;2022-12-10T15:02:01;82.10;;;18.98;;
48361;SDS011;34510;51.888;5.670;2022-12-10T15:07:04;81.65;;;18.27;;
48361;SDS011;34510;51.888;5.670;2022-12-10T15:12:15;93.82;;;18.70;;
48361;SDS011;34510;51.888;5.670;2022-12-10T15:22:40;55.97;;;16.02;;
48361;SDS011;34510;51.888;5.670;2022-12-10T15:27:51;65.30;;;17.45;;
48361;SDS011;34510;51.888;5.670;2022-12-10T15:32:53;60.38;;;16.52;;
48361;SDS011;34510;51.888;5.670;2022-12-10T15:37:57;48.50;;;16.50;;
48361;SDS011;34510;51.888;5.670;2022-12-10T15:48:35;73.90;;;19.27;;
48361;SDS011;34510;51.888;5.670;2022-12-10T15:53:37;71.07;;;18.50;;
48361;SDS011;34510;51.888;5.670;2022-12-10T15:58:40;99.00;;;19.48;;
48361;SDS011;34510;51.888;5.670;2022-12-10T16:03:42;61.85;;;19.10;;
48361;SDS011;34510;51.888;5.670;2022-12-10T16:08:44;72.45;;;18.40;;
48361;SDS011;34510;51.888;5.670;2022-12-10T16:13:51;81.20;;;18.63;;
48361;SDS011;34510;51.888;5.670;2022-12-10T16:18:53;69.60;;;15.07;;
48361;SDS011;34510;51.888;5.670;2022-12-10T16:23:55;71.28;;;18.05;;
48361;SDS011;34510;51.888;5.670;2022-12-10T16:28:57;231.27;;;24.10;;
48361;SDS011;34510;51.888;5.670;2022-12-10T16:33:59;76.35;;;20.08;;
48361;SDS011;34510;51.888;5.670;2022-12-10T16:39:01;81.22;;;19.13;;
48361;SDS011;34510;51.888;5.670;2022-12-10T16:44:04;64.40;;;16.20;;
48361;SDS011;34510;51.888;5.670;2022-12-10T16:49:05;164.77;;;22.75;;
48361;SDS011;34510;51.888;5.670;2022-12-10T16:54:08;76.40;;;18.13;;
48361;SDS011;34510;51.888;5.670;2022-12-10T16:59:10;70.55;;;17.20;;
48361;SDS011;34510;51.888;5.670;2022-12-10T17:04:12;66.75;;;18.60;;
48361;SDS011;34510;51.888;5.670;2022-12-10T17:09:14;70.97;;;18.88;;
48361;SDS011;34510;51.888;5.670;2022-12-10T17:14:23;96.32;;;19.73;;
48361;SDS011;34510;51.888;5.670;2022-12-10T17:19:29;141.70;;;23.98;;
48361;SDS011;34510;51.888;5.670;2022-12-10T17:24:32;97.93;;;18.70;;
48361;SDS011;34510;51.888;5.670;2022-12-10T17:29:37;84.50;;;19.95;;
48361;SDS011;34510;51.888;5.670;2022-12-10T17:34:40;81.70;;;19.33;;
48361;SDS011;34510;51.888;5.670;2022-12-10T17:39:42;67.40;;;19.08;;
48361;SDS011;34510;51.888;5.670;2022-12-10T17:44:43;96.75;;;20.60;;
48361;SDS011;34510;51.888;5.670;2022-12-10T17:49:45;73.55;;;20.08;;
48361;SDS011;34510;51.888;5.670;2022-12-10T17:54:47;77.70;;;16.80;;
48361;SDS011;34510;51.888;5.670;2022-12-10T17:59:49;74.85;;;17.90;;
48361;SDS011;34510;51.888;5.670;2022-12-10T18:04:50;90.05;;;17.70;;
48361;SDS011;34510;51.888;5.670;2022-12-10T18:09:53;73.30;;;17.48;;
48361;SDS011;34510;51.888;5.670;2022-12-10T18:14:54;70.40;;;16.33;;
48361;SDS011;34510;51.888;5.670;2022-12-10T18:19:56;82.85;;;16.85;;
48361;SDS011;34510;51.888;5.670;2022-12-10T18:24:58;68.43;;;17.10;;
48361;SDS011;34510;51.888;5.670;2022-12-10T18:30:00;82.07;;;19.17;;
48361;SDS011;34510;51.888;5.670;2022-12-10T18:35:02;77.05;;;19.98;;
48361;SDS011;34510;51.888;5.670;2022-12-10T18:40:05;88.10;;;20.95;;
48361;SDS011;34510;51.888;5.670;2022-12-10T18:45:07;76.32;;;18.17;;
48361;SDS011;34510;51.888;5.670;2022-12-10T18:50:15;71.80;;;18.13;;
48361;SDS011;34510;51.888;5.670;2022-12-10T18:55:19;94.85;;;20.60;;
48361;SDS011;34510;51.888;5.670;2022-12-10T19:00:22;92.70;;;23.17;;
48361;SDS011;34510;51.888;5.670;2022-12-10T19:05:25;93.10;;;23.20;;
48361;SDS011;34510;51.888;5.670;2022-12-10T19:10:26;62.92;;;20.00;;
48361;SDS011;34510;51.888;5.670;2022-12-10T19:15:28;83.18;;;21.23;;
48361;SDS011;34510;51.888;5.670;2022-12-10T19:20:31;65.72;;;18.77;;
48361;SDS011;34510;51.888;5.670;2022-12-10T19:25:33;85.68;;;21.83;;
48361;SDS011;34510;51.888;5.670;2022-12-10T19:30:35;82.65;;;20.52;;
48361;SDS011;34510;51.888;5.670;2022-12-10T19:35:37;65.95;;;19.67;;
48361;SDS011;34510;51.888;5.670;2022-12-10T19:40:39;61.28;;;18.77;;
48361;SDS011;34510;51.888;5.670;2022-12-10T19:45:41;69.05;;;18.25;;
48361;SDS011;34510;51.888;5.670;2022-12-10T19:50:43;60.00;;;15.60;;
48361;SDS011;34510;51.888;5.670;2022-12-10T19:55:45;80.68;;;19.98;;
48361;SDS011;34510;51.888;5.670;2022-12-10T20:00:47;68.60;;;18.92;;
48361;SDS011;34510;51.888;5.670;2022-12-10T20:05:49;95.95;;;20.65;;
48361;SDS011;34510;51.888;5.670;2022-12-10T20:10:51;78.80;;;20.73;;
48361;SDS011;34510;51.888;5.670;2022-12-10T20:15:52;69.57;;;18.58;;
48361;SDS011;34510;51.888;5.670;2022-12-10T20:20:55;88.88;;;18.60;;
48361;SDS011;34510;51.888;5.670;2022-12-10T20:25:57;74.07;;;19.65;;
48361;SDS011;34510;51.888;5.670;2022-12-10T20:31:01;67.32;;;19.83;;
48361;SDS011;34510;51.888;5.670;2022-12-10T20:36:03;60.88;;;18.88;;
48361;SDS011;34510;51.888;5.670;2022-12-10T20:41:05;59.60;;;17.38;;
48361;SDS011;34510;51.888;5.670;2022-12-10T20:46:18;65.72;;;17.13;;
48361;SDS011;34510;51.888;5.670;2022-12-10T20:51:21;52.95;;;16.92;;
48361;SDS011;34510;51.888;5.670;2022-12-10T20:56:24;65.20;;;15.90;;
48361;SDS011;34510;51.888;5.670;2022-12-10T21:01:26;67.13;;;19.33;;
48361;SDS011;34510;51.888;5.670;2022-12-10T21:06:29;65.30;;;18.20;;
48361;SDS011;34510;51.888;5.670;2022-12-10T21:11:31;68.18;;;20.70;;
48361;SDS011;34510;51.888;5.670;2022-12-10T21:16:33;52.60;;;16.48;;
48361;SDS011;34510;51.888;5.670;2022-12-10T21:21:35;57.13;;;17.10;;
48361;SDS011;34510;51.888;5.670;2022-12-10T21:26:37;58.70;;;17.27;;
48361;SDS011;34510;51.888;5.670;2022-12-10T21:31:38;54.88;;;16.73;;
48361;SDS011;34510;51.888;5.670;2022-12-10T21:36:40;61.10;;;17.42;;
48361;SDS011;34510;51.888;5.670;2022-12-10T21:41:42;63.03;;;19.90;;
48361;SDS011;34510;51.888;5.670;2022-12-10T21:47:02;71.70;;;18.40;;
48361;SDS011;34510;51.888;5.670;2022-12-10T21:52:04;58.55;;;15.52;;
48361;SDS011;34510;51.888;5.670;2022-12-10T21:57:06;48.25;;;15.68;;
48361;SDS011;34510;51.888;5.670;2022-12-10T22:02:08;54.92;;;18.33;;
48361;SDS011;34510;51.888;5.670;2022-12-10T22:07:10;66.13;;;18.73;;
48361;SDS011;34510;51.888;5.670;2022-12-10T22:12:12;64.57;;;18.30;;
48361;SDS011;34510;51.888;5.670;2022-12-10T22:17:14;59.20;;;18.17;;
48361;SDS011;34510;51.888;5.670;2022-12-10T22:22:16;73.68;;;19.80;;
48361;SDS011;34510;51.888;5.670;2022-12-10T22:27:17;56.88;;;18.08;;
48361;SDS011;34510;51.888;5.670;2022-12-10T22:32:19;74.10;;;19.00;;
48361;SDS011;34510;51.888;5.670;2022-12-10T22:37:21;97.32;;;21.95;;
48361;SDS011;34510;51.888;5.670;2022-12-10T22:42:23;88.10;;;22.98;;
48361;SDS011;34510;51.888;5.670;2022-12-10T22:47:26;111.28;;;21.70;;
48361;SDS011;34510;51.888;5.670;2022-12-10T22:52:28;107.53;;;23.30;;
48361;SDS011;34510;51.888;5.670;2022-12-10T22:57:30;89.53;;;22.70;;
48361;SDS011;34510;51.888;5.670;2022-12-10T23:02:31;164.68;;;28.98;;
48361;SDS011;34510;51.888;5.670;2022-12-10T23:07:34;104.72;;;23.48;;
48361;SDS011;34510;51.888;5.670;2022-12-10T23:12:36;81.97;;;20.15;;
48361;SDS011;34510;51.888;5.670;2022-12-10T23:17:57;106.55;;;23.50;;
48361;SDS011;34510;51.888;5.670;2022-12-10T23:22:58;103.15;;;24.05;;
48361;SDS011;34510;51.888;5.670;2022-12-10T23:28:00;93.03;;;24.98;;
48361;SDS011;34510;51.888;5.670;2022-12-10T23:33:03;107.78;;;23.77;;
48361;SDS011;34510;51.888;5.670;2022-12-10T23:38:09;85.72;;;20.77;;
48361;SDS011;34510;51.888;5.670;2022-12-10T23:43:11;82.68;;;23.08;;
48361;SDS011;34510;51.888;5.670;2022-12-10T23:48:13;84.15;;;22.92;;
48361;SDS011;34510;51.888;5.670;2022-12-10T23:53:15;106.28;;;22.88;;
48361;SDS011;34510;51.888;5.670;2022-12-10T23:58:17;72.13;;;21.02;;
